Arcadia, North Carolina
Current Conditions -  °F | °C
As of 10:55 AM on Thursday 30 Oct 2014 (Local Time) from KEXX Reporting Station
Clear Clear  
Wind Chill: 58°   Ceiling: Unl
Heat Index: 58°   Visibility: 10mi
Dew Point: 42°   Wind: 3mph
Humidity: 54%   Direction: 350°N
Pressure: 30.08"   Gusts: NA
Location:  35.7974°N, 80.2541°W
Report Text: KEXX 301455Z AUTO 35003KT 10SM CLR 15/05 A3008 RMK AO2 T01460054
Loading
Personal Weather Stations






























Interactive Weather Map
Tropical Storm Tracking
New forecast layout! Learn more

10-Day Weather Forecast

Advertisements
Track Severe Weather on mobile